createdAt,value
2022-12-23T00:01:28.787Z,19.90
2022-12-23T00:06:31.513Z,19.90
2022-12-23T00:11:34.159Z,19.90
2022-12-23T00:16:38.620Z,19.90
2022-12-23T00:21:41.343Z,19.90
2022-12-23T00:26:44.008Z,19.90
2022-12-23T00:31:48.091Z,19.90
2022-12-23T00:36:50.784Z,20.00
2022-12-23T00:42:10.761Z,19.90
2022-12-23T00:47:35.967Z,19.90
2022-12-23T00:52:38.645Z,20.00
2022-12-23T00:57:41.316Z,19.90
2022-12-23T01:03:02.934Z,19.90
2022-12-23T01:08:05.934Z,19.80
2022-12-23T01:13:08.708Z,19.90
2022-12-23T01:18:12.679Z,19.90
2022-12-23T01:23:15.301Z,19.90
2022-12-23T01:28:17.932Z,19.80
2022-12-23T01:33:21.962Z,19.90
2022-12-23T01:38:24.652Z,19.90
2022-12-23T01:43:42.208Z,19.80
2022-12-23T01:48:47.700Z,19.80
2022-12-23T01:53:51.752Z,19.80
2022-12-23T01:58:56.182Z,19.90
2022-12-23T02:04:01.546Z,19.80
2022-12-23T02:09:20.149Z,19.90
2022-12-23T02:14:46.098Z,19.90
2022-12-23T02:20:09.937Z,19.80
2022-12-23T02:25:27.481Z,19.80
2022-12-23T02:30:35.960Z,19.70
2022-12-23T02:35:41.722Z,19.80
2022-12-23T02:40:48.477Z,19.70
2022-12-23T02:45:55.587Z,19.80
2022-12-23T02:50:58.786Z,19.80
2022-12-23T02:56:02.866Z,19.80
2022-12-23T03:01:07.728Z,19.80
2022-12-23T03:06:16.807Z,19.80
2022-12-23T03:11:19.494Z,19.80
2022-12-23T03:16:24.520Z,19.70
2022-12-23T03:21:32.760Z,19.70
2022-12-23T03:26:40.068Z,19.70
2022-12-23T03:31:45.218Z,19.70
2022-12-23T03:36:50.096Z,19.80
2022-12-23T03:41:54.891Z,19.80
2022-12-23T03:47:01.668Z,19.70
2022-12-23T03:52:08.012Z,19.70
2022-12-23T03:57:11.532Z,19.70
2022-12-23T04:02:19.275Z,19.70
2022-12-23T04:07:23.571Z,19.70
2022-12-23T04:12:27.193Z,19.70
2022-12-23T04:17:31.240Z,19.70
2022-12-23T04:22:33.987Z,19.80
2022-12-23T04:27:36.635Z,19.70
2022-12-23T04:32:41.014Z,19.70
2022-12-23T04:37:43.688Z,19.70
2022-12-23T04:42:46.369Z,19.70
2022-12-23T04:47:50.394Z,19.60
2022-12-23T04:52:53.079Z,19.70
2022-12-23T04:57:55.703Z,19.60
2022-12-23T05:02:59.807Z,19.70
2022-12-23T05:08:03.379Z,19.70
2022-12-23T05:13:06.051Z,19.70
2022-12-23T05:18:10.072Z,19.60
2022-12-23T05:23:14.289Z,19.60
2022-12-23T05:28:17.027Z,19.70
2022-12-23T05:33:21.071Z,19.60
2022-12-23T05:38:23.770Z,19.60
2022-12-23T05:43:26.428Z,19.60
2022-12-23T05:48:30.467Z,19.60
2022-12-23T05:53:33.170Z,19.60
2022-12-23T05:58:35.797Z,19.70
2022-12-23T06:03:40.376Z,19.70
2022-12-23T06:08:43.238Z,19.60
2022-12-23T06:13:45.967Z,19.70
2022-12-23T06:18:50.030Z,19.60
2022-12-23T06:23:52.667Z,19.60
2022-12-23T06:28:55.386Z,19.70
2022-12-23T06:33:59.447Z,19.60
2022-12-23T06:39:02.065Z,19.60
2022-12-23T06:44:04.854Z,19.70
2022-12-23T06:49:13.139Z,19.60
2022-12-23T06:54:16.246Z,19.60
2022-12-23T06:59:18.860Z,19.60
2022-12-23T07:04:22.828Z,19.60
2022-12-23T07:09:26.161Z,19.70
2022-12-23T07:14:28.827Z,19.70
2022-12-23T07:19:32.903Z,19.60
2022-12-23T07:24:35.596Z,19.60
2022-12-23T07:29:38.419Z,19.50
2022-12-23T07:34:42.425Z,19.60
2022-12-23T07:39:45.109Z,19.60
2022-12-23T07:44:48.196Z,19.60
2022-12-23T07:49:52.167Z,19.60
2022-12-23T07:54:54.884Z,19.60
2022-12-23T07:59:58.125Z,19.60
2022-12-23T08:05:02.493Z,19.60
2022-12-23T08:10:06.009Z,19.60
2022-12-23T08:15:09.320Z,19.50
2022-12-23T08:20:13.600Z,19.50
2022-12-23T08:25:16.223Z,19.60
2022-12-23T08:30:18.977Z,19.60
2022-12-23T08:35:23.239Z,19.50
2022-12-23T08:40:25.912Z,19.50
2022-12-23T08:45:28.611Z,19.50
2022-12-23T08:50:32.627Z,19.60
2022-12-23T08:55:38.167Z,19.50
2022-12-23T09:00:40.803Z,19.50
2022-12-23T09:05:44.993Z,19.50
2022-12-23T09:10:47.624Z,19.60
2022-12-23T09:15:50.379Z,19.50
2022-12-23T09:21:00.618Z,19.50
2022-12-23T09:26:04.643Z,19.60
2022-12-23T09:31:08.641Z,19.50
2022-12-23T09:36:12.676Z,19.50
2022-12-23T09:41:20.460Z,19.60
2022-12-23T09:46:24.864Z,19.50
2022-12-23T09:51:30.546Z,19.50
2022-12-23T09:56:38.631Z,19.50
2022-12-23T10:01:45.470Z,19.50
2022-12-23T10:06:55.041Z,19.50
2022-12-23T10:11:59.161Z,19.50
2022-12-23T10:17:06.165Z,19.50
2022-12-23T10:22:14.692Z,19.50
2022-12-23T10:27:23.077Z,19.50
2022-12-23T10:32:35.241Z,19.50
2022-12-23T10:37:41.533Z,19.60
2022-12-23T10:42:46.796Z,19.60
2022-12-23T10:47:52.734Z,19.50
2022-12-23T10:52:58.216Z,19.50
2022-12-23T10:58:02.830Z,19.50
2022-12-23T11:03:09.218Z,19.50
2022-12-23T11:08:13.366Z,19.50
2022-12-23T11:13:25.907Z,19.50
2022-12-23T11:18:28.616Z,19.50
2022-12-23T11:23:33.319Z,19.50
2022-12-23T11:28:38.081Z,19.50
2022-12-23T11:33:41.739Z,19.50
2022-12-23T11:38:51.214Z,19.50
2022-12-23T11:43:57.193Z,19.50
2022-12-23T11:49:07.450Z,19.50
2022-12-23T11:54:15.938Z,19.50
2022-12-23T11:59:29.568Z,19.40
2022-12-23T12:04:33.680Z,19.60
2022-12-23T12:09:40.490Z,19.50
2022-12-23T12:14:45.094Z,19.50
2022-12-23T12:19:54.675Z,19.50
2022-12-23T12:24:59.785Z,19.50
2022-12-23T12:30:08.466Z,19.50
2022-12-23T12:35:14.289Z,19.50
2022-12-23T12:40:24.171Z,19.50
2022-12-23T12:45:28.994Z,19.50
2022-12-23T12:50:34.133Z,19.40
2022-12-23T12:55:39.769Z,19.50
2022-12-23T13:00:45.379Z,19.50
2022-12-23T13:05:56.723Z,19.50
2022-12-23T13:11:04.801Z,19.40
2022-12-23T13:16:13.223Z,19.60
2022-12-23T13:21:18.921Z,19.60
2022-12-23T13:26:30.853Z,19.50
2022-12-23T13:31:37.000Z,19.40
2022-12-23T13:36:45.466Z,19.40
2022-12-23T13:41:51.040Z,19.40
2022-12-23T13:46:58.479Z,19.40
2022-12-23T13:52:06.439Z,19.40
2022-12-23T13:57:14.822Z,19.40
2022-12-23T14:02:36.139Z,19.50
2022-12-23T14:07:38.929Z,19.50
2022-12-23T14:12:43.490Z,19.50
2022-12-23T14:17:48.899Z,19.50
2022-12-23T14:22:58.632Z,19.50
2022-12-23T14:28:07.094Z,19.50
2022-12-23T14:33:15.907Z,19.60
2022-12-23T14:38:28.687Z,19.50
2022-12-23T14:43:52.616Z,19.60
2022-12-23T14:49:39.006Z,19.40
2022-12-23T14:54:38.881Z,19.50
2022-12-23T14:59:48.188Z,19.50
2022-12-23T15:04:53.942Z,19.50
2022-12-23T15:10:01.004Z,19.60
2022-12-23T15:15:06.472Z,19.50
2022-12-23T15:20:14.213Z,19.50
2022-12-23T15:25:21.047Z,19.60
2022-12-23T15:30:25.905Z,19.50
2022-12-23T15:35:30.228Z,19.50
2022-12-23T15:40:34.228Z,19.50
2022-12-23T15:45:39.166Z,19.50
2022-12-23T15:50:42.432Z,19.50
2022-12-23T15:55:45.685Z,19.50
2022-12-23T16:00:54.215Z,19.50
2022-12-23T16:06:06.686Z,19.40
2022-12-23T16:11:14.201Z,19.50
2022-12-23T16:16:35.127Z,19.50
2022-12-23T16:21:38.013Z,19.40
2022-12-23T16:26:42.091Z,19.40
2022-12-23T16:31:52.188Z,19.50
2022-12-23T16:37:00.138Z,19.40
2022-12-23T16:42:02.861Z,19.40
2022-12-23T16:47:09.202Z,19.40
2022-12-23T16:52:14.185Z,19.50
2022-12-23T16:57:16.841Z,19.40
2022-12-23T17:02:22.936Z,19.40
2022-12-23T17:07:26.427Z,19.40
2022-12-23T17:12:29.516Z,19.40
2022-12-23T17:17:37.347Z,19.40
2022-12-23T17:22:40.309Z,19.40
2022-12-23T17:27:43.162Z,19.50
2022-12-23T17:32:50.791Z,19.50
2022-12-23T17:37:54.152Z,19.50
2022-12-23T17:42:56.793Z,19.40
2022-12-23T17:48:00.831Z,19.40
2022-12-23T17:53:03.746Z,19.50
2022-12-23T17:58:06.403Z,19.50
2022-12-23T18:03:21.278Z,19.50
2022-12-23T18:08:23.974Z,19.40
2022-12-23T18:13:26.617Z,19.40
2022-12-23T18:18:37.981Z,19.40
2022-12-23T18:23:48.473Z,19.40
2022-12-23T18:28:51.360Z,19.40
2022-12-23T18:33:55.471Z,19.50
2022-12-23T18:38:58.105Z,19.50
2022-12-23T18:44:00.796Z,19.40
2022-12-23T18:49:05.484Z,19.30
2022-12-23T18:54:08.135Z,19.40
2022-12-23T18:59:15.964Z,19.50
2022-12-23T19:04:20.151Z,19.50
2022-12-23T19:09:23.931Z,19.40
2022-12-23T19:14:26.610Z,19.40
2022-12-23T19:19:30.573Z,19.40
2022-12-23T19:24:33.234Z,19.40
2022-12-23T19:29:35.905Z,19.50
2022-12-23T19:34:39.916Z,19.50
2022-12-23T19:39:42.596Z,19.40
2022-12-23T19:44:45.562Z,19.50
2022-12-23T19:49:49.532Z,19.50
2022-12-23T19:54:52.949Z,19.40
2022-12-23T19:59:55.609Z,19.50
2022-12-23T20:05:00.421Z,19.40
2022-12-23T20:10:03.315Z,19.40
2022-12-23T20:15:06.310Z,19.30
2022-12-23T20:20:10.701Z,19.40
2022-12-23T20:25:13.417Z,19.40
2022-12-23T20:30:16.165Z,19.40
2022-12-23T20:35:20.181Z,19.40
2022-12-23T20:40:22.810Z,19.30
2022-12-23T20:45:26.164Z,19.30
2022-12-23T20:50:31.085Z,19.30
2022-12-23T20:55:34.321Z,19.40
2022-12-23T21:00:37.012Z,19.30
2022-12-23T21:05:41.015Z,19.20
2022-12-23T21:10:43.687Z,19.30
2022-12-23T21:15:46.435Z,19.30
2022-12-23T21:20:50.441Z,19.20
2022-12-23T21:25:53.073Z,19.30
2022-12-23T21:30:55.760Z,19.30
2022-12-23T21:35:59.823Z,19.20
2022-12-23T21:41:03.570Z,19.40
2022-12-23T21:46:07.389Z,19.30
2022-12-23T21:51:13.380Z,19.20
2022-12-23T21:56:17.465Z,19.30
2022-12-23T22:01:21.455Z,19.30
2022-12-23T22:06:26.410Z,19.30
2022-12-23T22:11:30.375Z,19.40
2022-12-23T22:16:33.867Z,19.40
2022-12-23T22:21:39.533Z,19.30
2022-12-23T22:26:42.462Z,19.30
2022-12-23T22:31:46.195Z,19.40
2022-12-23T22:36:50.825Z,19.40
2022-12-23T22:41:53.733Z,19.40
2022-12-23T22:46:56.458Z,19.40
2022-12-23T22:52:00.500Z,19.40
2022-12-23T22:57:03.181Z,19.40
2022-12-23T23:02:05.980Z,19.40
2022-12-23T23:07:10.037Z,19.40
2022-12-23T23:12:12.693Z,19.40
2022-12-23T23:17:15.365Z,19.40
2022-12-23T23:22:20.555Z,19.40
2022-12-23T23:27:23.288Z,19.40
2022-12-23T23:32:26.028Z,19.40
2022-12-23T23:37:30.095Z,19.40
2022-12-23T23:42:32.741Z,19.50
2022-12-23T23:47:35.388Z,19.40
2022-12-23T23:52:39.450Z,19.40
2022-12-23T23:57:42.132Z,19.40
